sensor_id;sensor_type;location;lat;lon;timestamp;temperature;humidity
46139;DHT22;32398;49.112;8.598;2023-06-24T00:01:01;22.70;59.00
46139;DHT22;32398;49.112;8.598;2023-06-24T00:03:28;22.60;59.10
46139;DHT22;32398;49.112;8.598;2023-06-24T00:05:56;22.60;59.10
46139;DHT22;32398;49.112;8.598;2023-06-24T00:08:22;22.60;59.30
46139;DHT22;32398;49.112;8.598;2023-06-24T00:10:57;22.60;59.40
46139;DHT22;32398;49.112;8.598;2023-06-24T00:13:23;22.50;59.40
46139;DHT22;32398;49.112;8.598;2023-06-24T00:15:50;22.50;59.50
46139;DHT22;32398;49.112;8.598;2023-06-24T00:18:16;22.40;59.60
46139;DHT22;32398;49.112;8.598;2023-06-24T00:20:43;22.40;59.70
46139;DHT22;32398;49.112;8.598;2023-06-24T00:23:11;22.40;59.90
46139;DHT22;32398;49.112;8.598;2023-06-24T00:25:40;22.30;59.80
46139;DHT22;32398;49.112;8.598;2023-06-24T00:28:07;22.30;59.90
46139;DHT22;32398;49.112;8.598;2023-06-24T00:30:34;22.30;59.90
46139;DHT22;32398;49.112;8.598;2023-06-24T00:33:00;22.20;60.80
46139;DHT22;32398;49.112;8.598;2023-06-24T00:35:27;22.20;60.10
46139;DHT22;32398;49.112;8.598;2023-06-24T00:37:54;22.20;60.20
46139;DHT22;32398;49.112;8.598;2023-06-24T00:40:24;22.10;60.30
46139;DHT22;32398;49.112;8.598;2023-06-24T00:42:51;22.10;60.50
46139;DHT22;32398;49.112;8.598;2023-06-24T00:45:18;22.10;60.50
46139;DHT22;32398;49.112;8.598;2023-06-24T00:47:44;22.00;60.50
46139;DHT22;32398;49.112;8.598;2023-06-24T00:50:11;22.00;60.60
46139;DHT22;32398;49.112;8.598;2023-06-24T00:52:38;22.00;60.60
46139;DHT22;32398;49.112;8.598;2023-06-24T00:55:07;22.00;60.70
46139;DHT22;32398;49.112;8.598;2023-06-24T00:57:36;21.90;60.80
46139;DHT22;32398;49.112;8.598;2023-06-24T01:00:04;21.90;60.90
46139;DHT22;32398;49.112;8.598;2023-06-24T01:02:34;21.90;61.00
46139;DHT22;32398;49.112;8.598;2023-06-24T01:05:02;21.80;61.00
46139;DHT22;32398;49.112;8.598;2023-06-24T01:07:31;21.80;61.10
46139;DHT22;32398;49.112;8.598;2023-06-24T01:09:58;21.80;61.20
46139;DHT22;32398;49.112;8.598;2023-06-24T01:12:25;21.70;61.20
46139;DHT22;32398;49.112;8.598;2023-06-24T01:14:53;21.70;61.30
46139;DHT22;32398;49.112;8.598;2023-06-24T01:17:22;21.60;61.20
46139;DHT22;32398;49.112;8.598;2023-06-24T01:19:59;21.60;61.40
46139;DHT22;32398;49.112;8.598;2023-06-24T01:22:37;21.60;61.50
46139;DHT22;32398;49.112;8.598;2023-06-24T01:25:15;21.60;61.60
46139;DHT22;32398;49.112;8.598;2023-06-24T01:27:52;21.50;61.60
46139;DHT22;32398;49.112;8.598;2023-06-24T01:30:33;21.50;61.70
46139;DHT22;32398;49.112;8.598;2023-06-24T01:33:04;21.50;61.70
46139;DHT22;32398;49.112;8.598;2023-06-24T01:35:34;21.50;61.80
46139;DHT22;32398;49.112;8.598;2023-06-24T01:38:03;21.40;61.80
46139;DHT22;32398;49.112;8.598;2023-06-24T01:40:32;21.40;61.90
46139;DHT22;32398;49.112;8.598;2023-06-24T01:43:03;21.40;62.00
46139;DHT22;32398;49.112;8.598;2023-06-24T01:45:32;21.30;61.90
46139;DHT22;32398;49.112;8.598;2023-06-24T01:47:59;21.30;62.10
46139;DHT22;32398;49.112;8.598;2023-06-24T01:50:27;21.30;62.10
46139;DHT22;32398;49.112;8.598;2023-06-24T01:52:56;21.30;62.20
46139;DHT22;32398;49.112;8.598;2023-06-24T01:55:23;21.20;62.20
46139;DHT22;32398;49.112;8.598;2023-06-24T01:57:51;21.20;62.30
46139;DHT22;32398;49.112;8.598;2023-06-24T02:00:17;21.20;62.30
46139;DHT22;32398;49.112;8.598;2023-06-24T02:02:44;21.10;62.40
46139;DHT22;32398;49.112;8.598;2023-06-24T02:05:11;21.10;62.50
46139;DHT22;32398;49.112;8.598;2023-06-24T02:07:40;21.10;62.40
46139;DHT22;32398;49.112;8.598;2023-06-24T02:10:08;21.00;62.40
46139;DHT22;32398;49.112;8.598;2023-06-24T02:12:35;21.00;62.50
46139;DHT22;32398;49.112;8.598;2023-06-24T02:15:02;21.00;62.50
46139;DHT22;32398;49.112;8.598;2023-06-24T02:17:32;20.90;62.50
46139;DHT22;32398;49.112;8.598;2023-06-24T02:19:59;21.00;62.60
46139;DHT22;32398;49.112;8.598;2023-06-24T02:22:26;20.90;62.60
46139;DHT22;32398;49.112;8.598;2023-06-24T02:24:54;20.90;62.70
46139;DHT22;32398;49.112;8.598;2023-06-24T02:27:21;20.90;62.70
46139;DHT22;32398;49.112;8.598;2023-06-24T02:29:48;20.90;62.80
46139;DHT22;32398;49.112;8.598;2023-06-24T02:32:16;20.80;62.70
46139;DHT22;32398;49.112;8.598;2023-06-24T02:34:42;20.80;62.80
46139;DHT22;32398;49.112;8.598;2023-06-24T02:37:09;20.80;62.80
46139;DHT22;32398;49.112;8.598;2023-06-24T02:39:35;20.80;62.90
46139;DHT22;32398;49.112;8.598;2023-06-24T02:42:06;20.70;62.90
46139;DHT22;32398;49.112;8.598;2023-06-24T02:44:32;20.70;62.90
46139;DHT22;32398;49.112;8.598;2023-06-24T02:46:59;20.70;63.00
46139;DHT22;32398;49.112;8.598;2023-06-24T02:49:26;20.60;63.20
46139;DHT22;32398;49.112;8.598;2023-06-24T02:51:53;20.60;63.00
46139;DHT22;32398;49.112;8.598;2023-06-24T02:54:20;20.60;63.20
46139;DHT22;32398;49.112;8.598;2023-06-24T02:56:46;20.60;63.10
46139;DHT22;32398;49.112;8.598;2023-06-24T02:59:15;20.50;63.10
46139;DHT22;32398;49.112;8.598;2023-06-24T03:01:41;20.50;63.10
46139;DHT22;32398;49.112;8.598;2023-06-24T03:04:10;20.50;63.20
46139;DHT22;32398;49.112;8.598;2023-06-24T03:06:36;20.50;63.30
46139;DHT22;32398;49.112;8.598;2023-06-24T03:09:05;20.40;63.30
46139;DHT22;32398;49.112;8.598;2023-06-24T03:11:39;20.40;63.30
46139;DHT22;32398;49.112;8.598;2023-06-24T03:14:06;20.40;63.40
46139;DHT22;32398;49.112;8.598;2023-06-24T03:16:34;20.40;63.40
46139;DHT22;32398;49.112;8.598;2023-06-24T03:19:00;20.40;63.50
46139;DHT22;32398;49.112;8.598;2023-06-24T03:21:27;20.30;63.50
46139;DHT22;32398;49.112;8.598;2023-06-24T03:23:54;20.30;63.60
46139;DHT22;32398;49.112;8.598;2023-06-24T03:26:22;20.30;63.70
46139;DHT22;32398;49.112;8.598;2023-06-24T03:28:48;20.30;63.70
46139;DHT22;32398;49.112;8.598;2023-06-24T03:31:15;20.20;63.60
46139;DHT22;32398;49.112;8.598;2023-06-24T03:33:43;20.20;63.60
46139;DHT22;32398;49.112;8.598;2023-06-24T03:36:10;20.20;63.80
46139;DHT22;32398;49.112;8.598;2023-06-24T03:38:37;20.20;63.90
46139;DHT22;32398;49.112;8.598;2023-06-24T03:41:03;20.20;63.90
46139;DHT22;32398;49.112;8.598;2023-06-24T03:43:30;20.10;63.80
46139;DHT22;32398;49.112;8.598;2023-06-24T03:45:56;20.10;64.00
46139;DHT22;32398;49.112;8.598;2023-06-24T03:48:23;20.10;63.90
46139;DHT22;32398;49.112;8.598;2023-06-24T03:50:51;20.10;64.00
46139;DHT22;32398;49.112;8.598;2023-06-24T03:53:17;20.10;64.10
46139;DHT22;32398;49.112;8.598;2023-06-24T03:55:44;20.10;64.10
46139;DHT22;32398;49.112;8.598;2023-06-24T03:58:10;20.00;64.10
46139;DHT22;32398;49.112;8.598;2023-06-24T04:00:39;20.00;64.20
46139;DHT22;32398;49.112;8.598;2023-06-24T04:03:05;20.00;64.20
46139;DHT22;32398;49.112;8.598;2023-06-24T04:05:32;19.90;64.20
46139;DHT22;32398;49.112;8.598;2023-06-24T04:08:00;19.90;64.30
46139;DHT22;32398;49.112;8.598;2023-06-24T04:10:31;19.90;64.30
46139;DHT22;32398;49.112;8.598;2023-06-24T04:12:57;19.90;64.40
46139;DHT22;32398;49.112;8.598;2023-06-24T04:15:24;19.90;64.40
46139;DHT22;32398;49.112;8.598;2023-06-24T04:17:50;19.80;64.40
46139;DHT22;32398;49.112;8.598;2023-06-24T04:20:17;19.80;64.50
46139;DHT22;32398;49.112;8.598;2023-06-24T04:22:43;19.80;64.60
46139;DHT22;32398;49.112;8.598;2023-06-24T04:25:11;19.80;64.70
46139;DHT22;32398;49.112;8.598;2023-06-24T04:27:38;19.80;64.80
46139;DHT22;32398;49.112;8.598;2023-06-24T04:30:04;19.70;64.80
46139;DHT22;32398;49.112;8.598;2023-06-24T04:32:31;19.70;65.00
46139;DHT22;32398;49.112;8.598;2023-06-24T04:34:58;19.70;65.10
46139;DHT22;32398;49.112;8.598;2023-06-24T04:37:26;19.70;65.20
46139;DHT22;32398;49.112;8.598;2023-06-24T04:39:52;19.70;65.30
46139;DHT22;32398;49.112;8.598;2023-06-24T04:42:20;19.60;65.40
46139;DHT22;32398;49.112;8.598;2023-06-24T04:44:48;19.60;65.50
46139;DHT22;32398;49.112;8.598;2023-06-24T04:47:16;19.60;65.50
46139;DHT22;32398;49.112;8.598;2023-06-24T04:49:43;19.60;65.60
46139;DHT22;32398;49.112;8.598;2023-06-24T04:52:10;19.60;65.80
46139;DHT22;32398;49.112;8.598;2023-06-24T04:54:37;19.60;65.90
46139;DHT22;32398;49.112;8.598;2023-06-24T04:57:05;19.60;66.00
46139;DHT22;32398;49.112;8.598;2023-06-24T04:59:33;19.50;66.10
46139;DHT22;32398;49.112;8.598;2023-06-24T05:02:01;19.50;66.10
46139;DHT22;32398;49.112;8.598;2023-06-24T05:04:28;19.50;66.30
46139;DHT22;32398;49.112;8.598;2023-06-24T05:06:54;19.50;66.40
46139;DHT22;32398;49.112;8.598;2023-06-24T05:09:21;19.50;66.50
46139;DHT22;32398;49.112;8.598;2023-06-24T05:11:47;19.40;66.60
46139;DHT22;32398;49.112;8.598;2023-06-24T05:14:14;19.40;66.60
46139;DHT22;32398;49.112;8.598;2023-06-24T05:16:42;19.40;66.80
46139;DHT22;32398;49.112;8.598;2023-06-24T05:19:10;19.40;67.50
46139;DHT22;32398;49.112;8.598;2023-06-24T05:21:37;19.40;66.80
46139;DHT22;32398;49.112;8.598;2023-06-24T05:24:03;19.40;66.80
46139;DHT22;32398;49.112;8.598;2023-06-24T05:26:30;19.40;66.80
46139;DHT22;32398;49.112;8.598;2023-06-24T05:28:57;19.40;66.90
46139;DHT22;32398;49.112;8.598;2023-06-24T05:31:23;19.40;66.90
46139;DHT22;32398;49.112;8.598;2023-06-24T05:33:51;19.40;67.00
46139;DHT22;32398;49.112;8.598;2023-06-24T05:36:18;19.40;67.00
46139;DHT22;32398;49.112;8.598;2023-06-24T05:38:46;19.40;67.10
46139;DHT22;32398;49.112;8.598;2023-06-24T05:41:13;19.40;67.10
46139;DHT22;32398;49.112;8.598;2023-06-24T05:43:42;19.40;67.10
46139;DHT22;32398;49.112;8.598;2023-06-24T05:46:08;19.40;67.10
46139;DHT22;32398;49.112;8.598;2023-06-24T05:48:35;19.40;67.10
46139;DHT22;32398;49.112;8.598;2023-06-24T05:51:03;19.40;67.20
46139;DHT22;32398;49.112;8.598;2023-06-24T05:53:30;19.40;67.30
46139;DHT22;32398;49.112;8.598;2023-06-24T05:55:56;19.40;67.30
46139;DHT22;32398;49.112;8.598;2023-06-24T05:58:23;19.40;67.30
46139;DHT22;32398;49.112;8.598;2023-06-24T06:00:49;19.50;67.40
46139;DHT22;32398;49.112;8.598;2023-06-24T06:03:16;19.50;67.40
46139;DHT22;32398;49.112;8.598;2023-06-24T06:05:43;19.50;67.50
46139;DHT22;32398;49.112;8.598;2023-06-24T06:08:10;19.50;67.50
46139;DHT22;32398;49.112;8.598;2023-06-24T06:10:37;19.50;67.50
46139;DHT22;32398;49.112;8.598;2023-06-24T06:13:04;19.50;67.50
46139;DHT22;32398;49.112;8.598;2023-06-24T06:15:30;19.50;67.70
46139;DHT22;32398;49.112;8.598;2023-06-24T06:17:57;19.50;67.70
46139;DHT22;32398;49.112;8.598;2023-06-24T06:20:23;19.50;67.80
46139;DHT22;32398;49.112;8.598;2023-06-24T06:22:50;19.50;67.80
46139;DHT22;32398;49.112;8.598;2023-06-24T06:25:18;19.50;67.90
46139;DHT22;32398;49.112;8.598;2023-06-24T06:27:44;19.60;68.20
46139;DHT22;32398;49.112;8.598;2023-06-24T06:30:12;19.60;68.00
46139;DHT22;32398;49.112;8.598;2023-06-24T06:32:38;19.60;68.00
46139;DHT22;32398;49.112;8.598;2023-06-24T06:35:05;19.60;68.00
46139;DHT22;32398;49.112;8.598;2023-06-24T06:37:32;19.60;68.10
46139;DHT22;32398;49.112;8.598;2023-06-24T06:39:59;19.70;68.00
46139;DHT22;32398;49.112;8.598;2023-06-24T06:42:27;19.70;68.00
46139;DHT22;32398;49.112;8.598;2023-06-24T06:44:53;19.70;68.00
46139;DHT22;32398;49.112;8.598;2023-06-24T06:47:20;19.70;67.90
46139;DHT22;32398;49.112;8.598;2023-06-24T06:49:46;19.70;68.00
46139;DHT22;32398;49.112;8.598;2023-06-24T06:52:13;19.70;68.00
46139;DHT22;32398;49.112;8.598;2023-06-24T06:54:39;19.80;68.00
46139;DHT22;32398;49.112;8.598;2023-06-24T06:57:06;19.80;68.00
46139;DHT22;32398;49.112;8.598;2023-06-24T06:59:34;19.80;68.10
46139;DHT22;32398;49.112;8.598;2023-06-24T07:02:00;19.80;68.50
46139;DHT22;32398;49.112;8.598;2023-06-24T07:04:27;19.80;68.10
46139;DHT22;32398;49.112;8.598;2023-06-24T07:06:53;19.90;68.30
46139;DHT22;32398;49.112;8.598;2023-06-24T07:09:20;19.90;68.20
46139;DHT22;32398;49.112;8.598;2023-06-24T07:11:46;19.90;68.30
46139;DHT22;32398;49.112;8.598;2023-06-24T07:14:13;19.90;68.00
46139;DHT22;32398;49.112;8.598;2023-06-24T07:16:41;20.00;68.00
46139;DHT22;32398;49.112;8.598;2023-06-24T07:19:07;20.00;67.80
46139;DHT22;32398;49.112;8.598;2023-06-24T07:21:34;20.00;67.90
46139;DHT22;32398;49.112;8.598;2023-06-24T07:24:00;20.00;67.90
46139;DHT22;32398;49.112;8.598;2023-06-24T07:26:27;20.10;68.10
46139;DHT22;32398;49.112;8.598;2023-06-24T07:28:56;20.10;68.30
46139;DHT22;32398;49.112;8.598;2023-06-24T07:31:22;20.10;68.60
46139;DHT22;32398;49.112;8.598;2023-06-24T07:33:50;20.10;68.70
46139;DHT22;32398;49.112;8.598;2023-06-24T07:36:17;20.20;68.20
46139;DHT22;32398;49.112;8.598;2023-06-24T07:38:44;20.20;68.10
46139;DHT22;32398;49.112;8.598;2023-06-24T07:41:10;20.20;68.10
46139;DHT22;32398;49.112;8.598;2023-06-24T07:43:37;20.20;68.00
46139;DHT22;32398;49.112;8.598;2023-06-24T07:46:04;20.30;68.20
46139;DHT22;32398;49.112;8.598;2023-06-24T07:48:31;20.30;68.50
46139;DHT22;32398;49.112;8.598;2023-06-24T07:50:58;20.30;68.50
46139;DHT22;32398;49.112;8.598;2023-06-24T07:53:25;20.30;68.50
46139;DHT22;32398;49.112;8.598;2023-06-24T07:55:51;20.40;68.50
46139;DHT22;32398;49.112;8.598;2023-06-24T07:58:18;20.40;68.80
46139;DHT22;32398;49.112;8.598;2023-06-24T08:00:45;20.40;68.50
46139;DHT22;32398;49.112;8.598;2023-06-24T08:03:12;20.50;68.30
46139;DHT22;32398;49.112;8.598;2023-06-24T08:05:38;20.50;68.10
46139;DHT22;32398;49.112;8.598;2023-06-24T08:08:07;20.60;67.80
46139;DHT22;32398;49.112;8.598;2023-06-24T08:10:34;20.60;67.70
46139;DHT22;32398;49.112;8.598;2023-06-24T08:13:00;20.60;67.50
46139;DHT22;32398;49.112;8.598;2023-06-24T08:15:27;20.70;67.40
46139;DHT22;32398;49.112;8.598;2023-06-24T08:17:54;20.70;67.10
46139;DHT22;32398;49.112;8.598;2023-06-24T08:20:20;20.70;66.70
46139;DHT22;32398;49.112;8.598;2023-06-24T08:22:47;20.80;66.20
46139;DHT22;32398;49.112;8.598;2023-06-24T08:25:15;20.80;65.80
46139;DHT22;32398;49.112;8.598;2023-06-24T08:27:42;20.80;65.80
46139;DHT22;32398;49.112;8.598;2023-06-24T08:30:12;20.90;66.00
46139;DHT22;32398;49.112;8.598;2023-06-24T08:32:38;20.90;66.10
46139;DHT22;32398;49.112;8.598;2023-06-24T08:35:06;21.00;66.10
46139;DHT22;32398;49.112;8.598;2023-06-24T08:37:32;21.00;65.90
46139;DHT22;32398;49.112;8.598;2023-06-24T08:39:59;21.00;65.80
46139;DHT22;32398;49.112;8.598;2023-06-24T08:42:27;21.10;65.50
46139;DHT22;32398;49.112;8.598;2023-06-24T08:44:53;21.10;65.30
46139;DHT22;32398;49.112;8.598;2023-06-24T08:47:20;21.20;65.40
46139;DHT22;32398;49.112;8.598;2023-06-24T08:49:47;21.20;65.10
46139;DHT22;32398;49.112;8.598;2023-06-24T08:52:15;21.30;65.10
46139;DHT22;32398;49.112;8.598;2023-06-24T08:54:42;21.30;65.00
46139;DHT22;32398;49.112;8.598;2023-06-24T08:57:11;21.30;64.80
46139;DHT22;32398;49.112;8.598;2023-06-24T08:59:41;21.40;64.60
46139;DHT22;32398;49.112;8.598;2023-06-24T09:02:08;21.40;64.50
46139;DHT22;32398;49.112;8.598;2023-06-24T09:04:36;21.50;64.30
46139;DHT22;32398;49.112;8.598;2023-06-24T09:07:03;21.50;63.80
46139;DHT22;32398;49.112;8.598;2023-06-24T09:09:29;21.50;63.70
46139;DHT22;32398;49.112;8.598;2023-06-24T09:11:57;21.60;63.30
46139;DHT22;32398;49.112;8.598;2023-06-24T09:14:24;21.60;62.60
46139;DHT22;32398;49.112;8.598;2023-06-24T09:16:52;21.60;62.40
46139;DHT22;32398;49.112;8.598;2023-06-24T09:19:22;21.70;62.50
46139;DHT22;32398;49.112;8.598;2023-06-24T09:21:49;21.70;62.40
46139;DHT22;32398;49.112;8.598;2023-06-24T09:24:16;21.80;62.50
46139;DHT22;32398;49.112;8.598;2023-06-24T09:26:43;21.90;62.50
46139;DHT22;32398;49.112;8.598;2023-06-24T09:29:11;21.90;62.40
46139;DHT22;32398;49.112;8.598;2023-06-24T09:31:45;22.00;62.10
46139;DHT22;32398;49.112;8.598;2023-06-24T09:34:13;22.00;62.00
46139;DHT22;32398;49.112;8.598;2023-06-24T09:36:41;22.10;61.20
46139;DHT22;32398;49.112;8.598;2023-06-24T09:39:08;22.10;61.10
46139;DHT22;32398;49.112;8.598;2023-06-24T09:41:35;22.20;60.90
46139;DHT22;32398;49.112;8.598;2023-06-24T09:44:01;22.20;60.20
46139;DHT22;32398;49.112;8.598;2023-06-24T09:46:28;22.30;60.40
46139;DHT22;32398;49.112;8.598;2023-06-24T09:48:55;22.40;60.00
46139;DHT22;32398;49.112;8.598;2023-06-24T09:51:23;22.40;59.90
46139;DHT22;32398;49.112;8.598;2023-06-24T09:53:50;22.50;59.80
46139;DHT22;32398;49.112;8.598;2023-06-24T09:56:18;22.60;59.20
46139;DHT22;32398;49.112;8.598;2023-06-24T09:58:45;22.60;59.10
46139;DHT22;32398;49.112;8.598;2023-06-24T10:01:12;22.70;58.90
46139;DHT22;32398;49.112;8.598;2023-06-24T10:03:41;22.80;58.70
46139;DHT22;32398;49.112;8.598;2023-06-24T10:06:08;22.80;58.40
46139;DHT22;32398;49.112;8.598;2023-06-24T10:08:36;23.00;58.40
46139;DHT22;32398;49.112;8.598;2023-06-24T10:11:03;23.00;58.20
46139;DHT22;32398;49.112;8.598;2023-06-24T10:13:30;23.10;58.00
46139;DHT22;32398;49.112;8.598;2023-06-24T10:15:56;23.20;57.90
46139;DHT22;32398;49.112;8.598;2023-06-24T10:18:32;23.30;57.90
46139;DHT22;32398;49.112;8.598;2023-06-24T10:20:59;23.30;57.60
46139;DHT22;32398;49.112;8.598;2023-06-24T10:23:29;23.40;56.30
46139;DHT22;32398;49.112;8.598;2023-06-24T10:25:57;23.50;56.20
46139;DHT22;32398;49.112;8.598;2023-06-24T10:28:23;23.50;56.30
46139;DHT22;32398;49.112;8.598;2023-06-24T10:30:53;23.60;56.20
46139;DHT22;32398;49.112;8.598;2023-06-24T10:33:20;23.70;56.20
46139;DHT22;32398;49.112;8.598;2023-06-24T10:35:47;23.80;56.00
46139;DHT22;32398;49.112;8.598;2023-06-24T10:38:13;23.80;55.90
46139;DHT22;32398;49.112;8.598;2023-06-24T10:40:41;23.90;55.80
46139;DHT22;32398;49.112;8.598;2023-06-24T10:43:28;24.00;55.70
46139;DHT22;32398;49.112;8.598;2023-06-24T10:45:56;24.10;55.40
46139;DHT22;32398;49.112;8.598;2023-06-24T10:48:23;24.10;55.90
46139;DHT22;32398;49.112;8.598;2023-06-24T10:50:49;24.20;55.10
46139;DHT22;32398;49.112;8.598;2023-06-24T10:53:16;24.30;54.90
46139;DHT22;32398;49.112;8.598;2023-06-24T10:55:45;24.30;54.70
46139;DHT22;32398;49.112;8.598;2023-06-24T10:58:12;24.40;54.70
46139;DHT22;32398;49.112;8.598;2023-06-24T11:00:41;24.50;54.60
46139;DHT22;32398;49.112;8.598;2023-06-24T11:03:08;24.60;54.40
46139;DHT22;32398;49.112;8.598;2023-06-24T11:05:36;24.70;54.10
46139;DHT22;32398;49.112;8.598;2023-06-24T11:08:04;24.80;54.00
46139;DHT22;32398;49.112;8.598;2023-06-24T11:10:31;24.80;53.90
46139;DHT22;32398;49.112;8.598;2023-06-24T11:12:58;24.90;53.70
46139;DHT22;32398;49.112;8.598;2023-06-24T11:15:31;24.90;53.60
46139;DHT22;32398;49.112;8.598;2023-06-24T11:18:01;25.00;53.60
46139;DHT22;32398;49.112;8.598;2023-06-24T11:20:28;25.10;52.60
46139;DHT22;32398;49.112;8.598;2023-06-24T11:22:55;25.10;52.30
46139;DHT22;32398;49.112;8.598;2023-06-24T11:25:21;25.20;52.20
46139;DHT22;32398;49.112;8.598;2023-06-24T11:27:49;25.20;51.90
46139;DHT22;32398;49.112;8.598;2023-06-24T11:30:16;25.30;51.80
46139;DHT22;32398;49.112;8.598;2023-06-24T11:32:43;25.40;51.80
46139;DHT22;32398;49.112;8.598;2023-06-24T11:35:12;25.50;51.70
46139;DHT22;32398;49.112;8.598;2023-06-24T11:37:40;25.50;51.30
46139;DHT22;32398;49.112;8.598;2023-06-24T11:40:08;25.60;51.40
46139;DHT22;32398;49.112;8.598;2023-06-24T11:42:35;25.60;51.40
46139;DHT22;32398;49.112;8.598;2023-06-24T11:45:02;25.70;51.30
46139;DHT22;32398;49.112;8.598;2023-06-24T11:47:31;25.80;50.90
46139;DHT22;32398;49.112;8.598;2023-06-24T11:49:57;25.90;50.70
46139;DHT22;32398;49.112;8.598;2023-06-24T11:55:18;26.00;49.90
46139;DHT22;32398;49.112;8.598;2023-06-24T11:57:52;26.00;50.00
46139;DHT22;32398;49.112;8.598;2023-06-24T12:00:19;26.10;49.90
46139;DHT22;32398;49.112;8.598;2023-06-24T12:02:46;26.20;50.00
46139;DHT22;32398;49.112;8.598;2023-06-24T12:05:19;26.20;49.80
46139;DHT22;32398;49.112;8.598;2023-06-24T12:07:51;26.30;50.10
46139;DHT22;32398;49.112;8.598;2023-06-24T12:10:19;26.40;49.40
46139;DHT22;32398;49.112;8.598;2023-06-24T12:12:45;26.40;49.00
46139;DHT22;32398;49.112;8.598;2023-06-24T12:15:12;26.50;48.10
46139;DHT22;32398;49.112;8.598;2023-06-24T12:17:39;26.50;46.30
46139;DHT22;32398;49.112;8.598;2023-06-24T12:20:06;26.60;47.30
46139;DHT22;32398;49.112;8.598;2023-06-24T12:22:33;26.70;47.80
46139;DHT22;32398;49.112;8.598;2023-06-24T12:24:59;26.70;47.40
46139;DHT22;32398;49.112;8.598;2023-06-24T12:27:27;26.70;47.60
46139;DHT22;32398;49.112;8.598;2023-06-24T12:29:53;26.80;47.70
46139;DHT22;32398;49.112;8.598;2023-06-24T12:32:20;26.90;47.70
46139;DHT22;32398;49.112;8.598;2023-06-24T12:34:46;26.90;47.50
46139;DHT22;32398;49.112;8.598;2023-06-24T12:37:13;27.00;47.60
46139;DHT22;32398;49.112;8.598;2023-06-24T12:39:40;27.00;47.60
46139;DHT22;32398;49.112;8.598;2023-06-24T12:42:06;27.10;47.70
46139;DHT22;32398;49.112;8.598;2023-06-24T12:44:34;27.20;47.30
46139;DHT22;32398;49.112;8.598;2023-06-24T12:47:01;27.20;47.50
46139;DHT22;32398;49.112;8.598;2023-06-24T12:49:27;27.30;47.50
46139;DHT22;32398;49.112;8.598;2023-06-24T12:51:54;27.30;46.90
46139;DHT22;32398;49.112;8.598;2023-06-24T12:54:21;27.40;46.90
46139;DHT22;32398;49.112;8.598;2023-06-24T12:56:47;27.40;47.20
46139;DHT22;32398;49.112;8.598;2023-06-24T12:59:14;27.40;47.20
46139;DHT22;32398;49.112;8.598;2023-06-24T13:01:41;27.50;46.90
46139;DHT22;32398;49.112;8.598;2023-06-24T13:04:10;27.50;46.70
46139;DHT22;32398;49.112;8.598;2023-06-24T13:06:36;27.60;46.80
46139;DHT22;32398;49.112;8.598;2023-06-24T13:09:03;27.70;46.70
46139;DHT22;32398;49.112;8.598;2023-06-24T13:11:29;27.70;46.80
46139;DHT22;32398;49.112;8.598;2023-06-24T13:13:56;27.70;46.00
46139;DHT22;32398;49.112;8.598;2023-06-24T13:16:23;27.80;45.90
46139;DHT22;32398;49.112;8.598;2023-06-24T13:18:51;27.80;45.50
46139;DHT22;32398;49.112;8.598;2023-06-24T13:21:18;27.90;46.00
46139;DHT22;32398;49.112;8.598;2023-06-24T13:23:44;28.00;46.40
46139;DHT22;32398;49.112;8.598;2023-06-24T13:26:11;28.00;46.00
46139;DHT22;32398;49.112;8.598;2023-06-24T13:28:38;28.00;45.40
46139;DHT22;32398;49.112;8.598;2023-06-24T13:31:04;28.10;45.00
46139;DHT22;32398;49.112;8.598;2023-06-24T13:33:31;28.20;44.90
46139;DHT22;32398;49.112;8.598;2023-06-24T13:35:59;28.20;45.50
46139;DHT22;32398;49.112;8.598;2023-06-24T13:38:25;28.30;44.90
46139;DHT22;32398;49.112;8.598;2023-06-24T13:40:52;28.30;44.40
46139;DHT22;32398;49.112;8.598;2023-06-24T13:43:18;28.40;45.30
46139;DHT22;32398;49.112;8.598;2023-06-24T13:45:45;28.40;44.80
46139;DHT22;32398;49.112;8.598;2023-06-24T13:48:12;28.50;44.70
46139;DHT22;32398;49.112;8.598;2023-06-24T13:50:38;28.60;45.00
46139;DHT22;32398;49.112;8.598;2023-06-24T13:53:06;28.60;44.80
46139;DHT22;32398;49.112;8.598;2023-06-24T13:55:32;28.70;44.70
46139;DHT22;32398;49.112;8.598;2023-06-24T13:58:01;28.70;44.50
46139;DHT22;32398;49.112;8.598;2023-06-24T14:00:28;28.80;44.20
46139;DHT22;32398;49.112;8.598;2023-06-24T14:02:54;28.80;44.40
46139;DHT22;32398;49.112;8.598;2023-06-24T14:05:21;28.80;44.10
46139;DHT22;32398;49.112;8.598;2023-06-24T14:07:47;28.90;44.60
46139;DHT22;32398;49.112;8.598;2023-06-24T14:10:15;29.00;44.60
46139;DHT22;32398;49.112;8.598;2023-06-24T14:12:42;29.00;44.20
46139;DHT22;32398;49.112;8.598;2023-06-24T14:15:09;29.10;44.20
46139;DHT22;32398;49.112;8.598;2023-06-24T14:17:35;29.10;44.40
46139;DHT22;32398;49.112;8.598;2023-06-24T14:20:02;29.20;44.00
46139;DHT22;32398;49.112;8.598;2023-06-24T14:22:29;29.20;43.00
46139;DHT22;32398;49.112;8.598;2023-06-24T14:24:55;29.30;43.10
46139;DHT22;32398;49.112;8.598;2023-06-24T14:27:23;29.30;43.00
46139;DHT22;32398;49.112;8.598;2023-06-24T14:29:50;29.40;43.20
46139;DHT22;32398;49.112;8.598;2023-06-24T14:32:16;29.50;42.20
46139;DHT22;32398;49.112;8.598;2023-06-24T14:34:43;29.50;43.00
46139;DHT22;32398;49.112;8.598;2023-06-24T14:37:09;29.60;42.90
46139;DHT22;32398;49.112;8.598;2023-06-24T14:39:36;29.60;42.50
46139;DHT22;32398;49.112;8.598;2023-06-24T14:42:03;29.70;41.60
46139;DHT22;32398;49.112;8.598;2023-06-24T14:44:30;29.70;42.40
46139;DHT22;32398;49.112;8.598;2023-06-24T14:46:57;29.80;42.60
46139;DHT22;32398;49.112;8.598;2023-06-24T14:49:23;29.80;42.10
46139;DHT22;32398;49.112;8.598;2023-06-24T14:51:51;29.90;41.90
46139;DHT22;32398;49.112;8.598;2023-06-24T14:54:17;30.00;42.40
46139;DHT22;32398;49.112;8.598;2023-06-24T14:56:44;30.00;42.60
46139;DHT22;32398;49.112;8.598;2023-06-24T14:59:12;30.00;43.00
46139;DHT22;32398;49.112;8.598;2023-06-24T15:01:40;30.10;42.80
46139;DHT22;32398;49.112;8.598;2023-06-24T15:04:08;30.20;41.80
46139;DHT22;32398;49.112;8.598;2023-06-24T15:06:35;30.20;42.40
46139;DHT22;32398;49.112;8.598;2023-06-24T15:09:01;30.30;41.80
46139;DHT22;32398;49.112;8.598;2023-06-24T15:11:28;30.30;42.20
46139;DHT22;32398;49.112;8.598;2023-06-24T15:13:54;30.30;42.80
46139;DHT22;32398;49.112;8.598;2023-06-24T15:16:21;30.40;42.20
46139;DHT22;32398;49.112;8.598;2023-06-24T15:18:49;30.40;41.90
46139;DHT22;32398;49.112;8.598;2023-06-24T15:21:16;30.40;42.00
46139;DHT22;32398;49.112;8.598;2023-06-24T15:23:42;30.40;41.50
46139;DHT22;32398;49.112;8.598;2023-06-24T15:26:09;30.50;42.20
46139;DHT22;32398;49.112;8.598;2023-06-24T15:28:35;30.50;41.40
46139;DHT22;32398;49.112;8.598;2023-06-24T15:31:02;30.50;41.50
46139;DHT22;32398;49.112;8.598;2023-06-24T15:33:29;30.60;41.70